sensor_id;sensor_type;location;lat;lon;timestamp;pressure;altitude;pressure_sealevel;temperature;humidity
45941;BME280;31858;46.008;8.978;2022-08-25T00:03:05;94710.63;;;21.79;72.49
45941;BME280;31858;46.008;8.978;2022-08-25T00:13:08;94713.97;;;21.48;76.43
45941;BME280;31858;46.008;8.978;2022-08-25T00:23:11;94727.59;;;21.58;74.87
45941;BME280;31858;46.008;8.978;2022-08-25T00:33:15;94732.78;;;21.65;74.45
45941;BME280;31858;46.008;8.978;2022-08-25T00:43:18;94723.50;;;21.40;77.65
45941;BME280;31858;46.008;8.978;2022-08-25T00:53:20;94716.03;;;21.44;77.02
45941;BME280;31858;46.008;8.978;2022-08-25T01:03:25;94703.13;;;21.48;76.04
45941;BME280;31858;46.008;8.978;2022-08-25T01:13:30;94709.22;;;21.27;80.09
45941;BME280;31858;46.008;8.978;2022-08-25T01:23:35;94696.84;;;21.39;77.50
45941;BME280;31858;46.008;8.978;2022-08-25T01:33:36;94695.88;;;21.20;81.17
45941;BME280;31858;46.008;8.978;2022-08-25T01:43:39;94697.16;;;21.41;76.89
45941;BME280;31858;46.008;8.978;2022-08-25T01:53:41;94709.19;;;21.14;80.22
45941;BME280;31858;46.008;8.978;2022-08-25T02:03:47;94703.03;;;21.39;77.93
45941;BME280;31858;46.008;8.978;2022-08-25T02:13:49;94715.84;;;21.26;77.10
45941;BME280;31858;46.008;8.978;2022-08-25T02:23:53;94708.91;;;21.25;78.56
45941;BME280;31858;46.008;8.978;2022-08-25T02:33:56;94708.13;;;21.12;78.66
45941;BME280;31858;46.008;8.978;2022-08-25T02:44:00;94702.59;;;21.03;79.87
45941;BME280;31858;46.008;8.978;2022-08-25T02:54:04;94696.53;;;20.86;81.93
45941;BME280;31858;46.008;8.978;2022-08-25T03:04:07;94704.44;;;20.80;83.08
45941;BME280;31858;46.008;8.978;2022-08-25T03:14:09;94686.69;;;20.79;83.64
45941;BME280;31858;46.008;8.978;2022-08-25T03:24:12;94694.81;;;20.79;82.90
45941;BME280;31858;46.008;8.978;2022-08-25T03:34:15;94704.22;;;20.62;85.83
45941;BME280;31858;46.008;8.978;2022-08-25T03:44:20;94686.38;;;20.65;86.09
45941;BME280;31858;46.008;8.978;2022-08-25T03:54:23;94674.78;;;20.77;83.16
45941;BME280;31858;46.008;8.978;2022-08-25T04:04:26;94662.19;;;20.45;92.62
45941;BME280;31858;46.008;8.978;2022-08-25T04:14:28;94655.28;;;20.44;95.90
45941;BME280;31858;46.008;8.978;2022-08-25T04:24:31;94656.28;;;20.75;87.16
45941;BME280;31858;46.008;8.978;2022-08-25T04:34:33;94650.63;;;20.57;87.87
45941;BME280;31858;46.008;8.978;2022-08-25T04:44:36;94646.84;;;20.55;87.18
45941;BME280;31858;46.008;8.978;2022-08-25T04:54:38;94648.06;;;20.25;96.07
45941;BME280;31858;46.008;8.978;2022-08-25T05:04:41;94635.72;;;20.24;96.54
45941;BME280;31858;46.008;8.978;2022-08-25T05:14:43;94626.38;;;20.54;92.69
45941;BME280;31858;46.008;8.978;2022-08-25T05:24:46;94629.59;;;20.36;97.42
45941;BME280;31858;46.008;8.978;2022-08-25T05:34:47;94625.19;;;20.42;98.00
45941;BME280;31858;46.008;8.978;2022-08-25T05:44:50;94624.25;;;20.19;100.00
45941;BME280;31858;46.008;8.978;2022-08-25T05:54:52;94611.19;;;20.31;100.00
45941;BME280;31858;46.008;8.978;2022-08-25T06:04:55;94613.22;;;20.27;100.00
45941;BME280;31858;46.008;8.978;2022-08-25T06:14:57;94607.50;;;20.25;100.00
45941;BME280;31858;46.008;8.978;2022-08-25T06:25:00;94613.56;;;20.29;100.00
45941;BME280;31858;46.008;8.978;2022-08-25T06:35:02;94611.84;;;20.35;100.00
45941;BME280;31858;46.008;8.978;2022-08-25T06:45:06;94600.19;;;20.50;100.00
45941;BME280;31858;46.008;8.978;2022-08-25T06:55:09;94589.09;;;20.32;100.00
45941;BME280;31858;46.008;8.978;2022-08-25T07:05:12;94588.88;;;20.27;100.00
45941;BME280;31858;46.008;8.978;2022-08-25T07:15:14;94584.22;;;20.27;100.00
45941;BME280;31858;46.008;8.978;2022-08-25T07:25:17;94589.31;;;20.25;100.00
45941;BME280;31858;46.008;8.978;2022-08-25T07:35:19;94572.09;;;20.32;100.00
45941;BME280;31858;46.008;8.978;2022-08-25T07:45:27;94571.06;;;20.42;100.00
45941;BME280;31858;46.008;8.978;2022-08-25T07:55:30;94570.28;;;20.41;100.00
45941;BME280;31858;46.008;8.978;2022-08-25T08:05:34;94585.78;;;20.41;100.00
45941;BME280;31858;46.008;8.978;2022-08-25T08:15:37;94584.38;;;20.62;100.00
45941;BME280;31858;46.008;8.978;2022-08-25T08:25:43;94582.56;;;20.93;100.00
45941;BME280;31858;46.008;8.978;2022-08-25T08:35:44;94583.72;;;21.05;100.00
45941;BME280;31858;46.008;8.978;2022-08-25T08:45:49;94587.16;;;21.18;100.00
45941;BME280;31858;46.008;8.978;2022-08-25T08:55:55;94583.34;;;21.41;100.00
45941;BME280;31858;46.008;8.978;2022-08-25T09:06:03;94584.28;;;21.69;100.00
45941;BME280;31858;46.008;8.978;2022-08-25T09:16:11;94575.13;;;21.97;100.00
45941;BME280;31858;46.008;8.978;2022-08-25T09:26:38;94580.34;;;22.13;100.00
45941;BME280;31858;46.008;8.978;2022-08-25T09:36:44;94565.22;;;22.34;100.00
45941;BME280;31858;46.008;8.978;2022-08-25T09:46:58;94557.16;;;22.53;100.00
45941;BME280;31858;46.008;8.978;2022-08-25T09:57:02;94549.88;;;22.81;100.00
45941;BME280;31858;46.008;8.978;2022-08-25T10:07:22;94545.09;;;23.12;100.00
45941;BME280;31858;46.008;8.978;2022-08-25T10:17:27;94547.97;;;23.36;100.00
45941;BME280;31858;46.008;8.978;2022-08-25T10:27:37;94533.91;;;23.56;77.42
45941;BME280;31858;46.008;8.978;2022-08-25T10:37:46;94514.25;;;23.79;70.71
45941;BME280;31858;46.008;8.978;2022-08-25T10:48:07;94489.84;;;24.03;67.16
45941;BME280;31858;46.008;8.978;2022-08-25T10:58:22;94467.81;;;24.25;62.21
45941;BME280;31858;46.008;8.978;2022-08-25T11:08:32;94468.34;;;24.47;55.85
45941;BME280;31858;46.008;8.978;2022-08-25T11:18:45;94445.31;;;24.72;58.04
45941;BME280;31858;46.008;8.978;2022-08-25T11:28:55;94441.59;;;25.08;53.88
45941;BME280;31858;46.008;8.978;2022-08-25T11:39:11;94420.84;;;25.25;56.73
45941;BME280;31858;46.008;8.978;2022-08-25T11:49:29;94412.19;;;25.42;51.18
45941;BME280;31858;46.008;8.978;2022-08-25T12:00:09;94421.81;;;25.81;53.18
45941;BME280;31858;46.008;8.978;2022-08-25T12:10:18;94407.38;;;25.95;51.07
45941;BME280;31858;46.008;8.978;2022-08-25T12:31:23;94392.69;;;26.28;51.60
45941;BME280;31858;46.008;8.978;2022-08-25T12:41:29;94397.63;;;26.44;48.88
45941;BME280;31858;46.008;8.978;2022-08-25T12:51:47;94394.16;;;26.44;48.12
45941;BME280;31858;46.008;8.978;2022-08-25T13:02:23;94386.84;;;26.76;47.22
45941;BME280;31858;46.008;8.978;2022-08-25T13:12:35;94373.72;;;27.00;46.48
45941;BME280;31858;46.008;8.978;2022-08-25T13:22:43;94379.88;;;27.21;44.32
45941;BME280;31858;46.008;8.978;2022-08-25T13:32:48;94371.16;;;27.48;45.26
45941;BME280;31858;46.008;8.978;2022-08-25T13:42:52;94350.66;;;27.64;47.23
45941;BME280;31858;46.008;8.978;2022-08-25T13:52:58;94350.22;;;27.71;44.34
45941;BME280;31858;46.008;8.978;2022-08-25T14:03:02;94346.81;;;27.82;44.04
45941;BME280;31858;46.008;8.978;2022-08-25T14:13:15;94343.09;;;28.22;42.62
45941;BME280;31858;46.008;8.978;2022-08-25T14:23:29;94341.25;;;28.62;41.54
45941;BME280;31858;46.008;8.978;2022-08-25T14:33:36;94336.63;;;28.90;39.84
45941;BME280;31858;46.008;8.978;2022-08-25T14:43:38;94326.91;;;28.95;38.27
45941;BME280;31858;46.008;8.978;2022-08-25T14:53:42;94321.94;;;29.15;39.12
45941;BME280;31858;46.008;8.978;2022-08-25T15:03:46;94317.47;;;29.35;40.55
45941;BME280;31858;46.008;8.978;2022-08-25T15:13:50;94305.28;;;29.47;39.85
45941;BME280;31858;46.008;8.978;2022-08-25T15:23:52;94301.53;;;29.56;37.81
45941;BME280;31858;46.008;8.978;2022-08-25T15:33:55;94305.03;;;29.56;37.25
45941;BME280;31858;46.008;8.978;2022-08-25T15:43:57;94306.28;;;29.61;38.20
45941;BME280;31858;46.008;8.978;2022-08-25T15:54:00;94287.81;;;29.50;39.02
45941;BME280;31858;46.008;8.978;2022-08-25T16:04:02;94285.81;;;29.45;39.75
45941;BME280;31858;46.008;8.978;2022-08-25T16:14:05;94278.56;;;29.53;38.15
45941;BME280;31858;46.008;8.978;2022-08-25T16:24:07;94277.81;;;29.41;39.25
45941;BME280;31858;46.008;8.978;2022-08-25T16:34:11;94278.81;;;29.33;40.07
45941;BME280;31858;46.008;8.978;2022-08-25T16:44:12;94267.59;;;29.14;40.23
45941;BME280;31858;46.008;8.978;2022-08-25T16:54:15;94260.53;;;28.79;40.96
45941;BME280;31858;46.008;8.978;2022-08-25T17:04:34;94265.75;;;28.72;40.92
45941;BME280;31858;46.008;8.978;2022-08-25T17:14:37;94253.03;;;28.52;40.78
45941;BME280;31858;46.008;8.978;2022-08-25T17:24:39;94245.75;;;28.32;41.08
45941;BME280;31858;46.008;8.978;2022-08-25T17:34:42;94254.34;;;28.08;41.88
45941;BME280;31858;46.008;8.978;2022-08-25T17:44:43;94257.69;;;27.75;42.67
45941;BME280;31858;46.008;8.978;2022-08-25T17:54:46;94257.16;;;27.40;43.41
45941;BME280;31858;46.008;8.978;2022-08-25T18:04:48;94267.63;;;27.04;44.88
45941;BME280;31858;46.008;8.978;2022-08-25T18:14:51;94278.25;;;26.76;46.20
45941;BME280;31858;46.008;8.978;2022-08-25T18:24:53;94298.06;;;26.45;47.15
45941;BME280;31858;46.008;8.978;2022-08-25T18:34:56;94295.84;;;26.29;47.32
45941;BME280;31858;46.008;8.978;2022-08-25T18:44:59;94309.09;;;26.16;47.87
45941;BME280;31858;46.008;8.978;2022-08-25T18:55:03;94303.50;;;25.84;48.86
45941;BME280;31858;46.008;8.978;2022-08-25T19:05:05;94312.84;;;25.63;48.64
45941;BME280;31858;46.008;8.978;2022-08-25T19:15:09;94313.63;;;25.49;48.50
45941;BME280;31858;46.008;8.978;2022-08-25T19:25:12;94325.66;;;25.42;49.42
45941;BME280;31858;46.008;8.978;2022-08-25T19:35:21;94339.59;;;25.44;49.97
45941;BME280;31858;46.008;8.978;2022-08-25T19:45:24;94338.66;;;25.03;50.32
45941;BME280;31858;46.008;8.978;2022-08-25T19:55:27;94342.50;;;24.96;50.19
45941;BME280;31858;46.008;8.978;2022-08-25T20:05:29;94347.41;;;25.07;50.58
45941;BME280;31858;46.008;8.978;2022-08-25T20:15:33;94370.84;;;24.90;50.87
45941;BME280;31858;46.008;8.978;2022-08-25T20:25:35;94369.25;;;24.68;52.16
45941;BME280;31858;46.008;8.978;2022-08-25T20:35:38;94375.56;;;24.51;52.35
45941;BME280;31858;46.008;8.978;2022-08-25T20:45:39;94373.25;;;24.34;52.91
45941;BME280;31858;46.008;8.978;2022-08-25T20:55:42;94375.88;;;24.29;52.58
45941;BME280;31858;46.008;8.978;2022-08-25T21:05:44;94388.28;;;24.21;53.00
45941;BME280;31858;46.008;8.978;2022-08-25T21:15:47;94393.06;;;24.02;53.46
45941;BME280;31858;46.008;8.978;2022-08-25T21:25:48;94398.97;;;24.00;53.38
45941;BME280;31858;46.008;8.978;2022-08-25T21:35:52;94406.25;;;23.94;54.72
45941;BME280;31858;46.008;8.978;2022-08-25T21:45:53;94411.28;;;23.87;55.38
45941;BME280;31858;46.008;8.978;2022-08-25T21:55:56;94409.47;;;23.84;56.07
45941;BME280;31858;46.008;8.978;2022-08-25T22:06:00;94407.59;;;23.66;60.44
45941;BME280;31858;46.008;8.978;2022-08-25T22:16:03;94411.50;;;23.65;57.39
45941;BME280;31858;46.008;8.978;2022-08-25T22:26:05;94413.66;;;23.61;59.42
45941;BME280;31858;46.008;8.978;2022-08-25T22:36:16;94408.19;;;23.70;58.22
45941;BME280;31858;46.008;8.978;2022-08-25T22:46:19;94422.13;;;23.44;59.50
45941;BME280;31858;46.008;8.978;2022-08-25T22:56:27;94399.16;;;23.46;57.02
45941;BME280;31858;46.008;8.978;2022-08-25T23:06:30;94407.56;;;23.15;60.44
45941;BME280;31858;46.008;8.978;2022-08-25T23:16:35;94404.38;;;23.25;57.84
45941;BME280;31858;46.008;8.978;2022-08-25T23:26:37;94402.44;;;22.98;59.73
45941;BME280;31858;46.008;8.978;2022-08-25T23:36:40;94401.97;;;23.00;59.78
45941;BME280;31858;46.008;8.978;2022-08-25T23:46:42;94397.75;;;23.08;60.27
45941;BME280;31858;46.008;8.978;2022-08-25T23:56:46;94394.13;;;22.93;60.59
